createdAt,value
2023-01-17T00:02:08.660Z,2.45
2023-01-17T00:04:50.760Z,2.55
2023-01-17T00:07:33.964Z,2.40
2023-01-17T00:10:07.227Z,2.42
2023-01-17T00:12:36.784Z,2.33
2023-01-17T00:15:10.403Z,2.28
2023-01-17T00:17:39.866Z,2.50
2023-01-17T00:20:23.298Z,2.53
2023-01-17T00:23:05.237Z,2.50
2023-01-17T00:25:48.208Z,2.40
2023-01-17T00:28:14.958Z,2.70
2023-01-17T00:30:46.808Z,2.33
2023-01-17T00:33:13.510Z,2.30
2023-01-17T00:35:40.514Z,2.80
2023-01-17T00:38:08.056Z,2.70
2023-01-17T00:40:35.493Z,2.50
2023-01-17T00:43:17.464Z,2.50
2023-01-17T00:46:02.155Z,2.40
2023-01-17T00:48:44.130Z,2.60
2023-01-17T00:51:26.080Z,2.50
2023-01-17T00:54:08.113Z,2.40
2023-01-17T00:56:50.110Z,2.50
2023-01-17T00:59:32.098Z,2.42
2023-01-17T01:02:16.692Z,2.42
2023-01-17T01:04:58.777Z,2.60
2023-01-17T01:07:40.738Z,3.00
2023-01-17T01:10:23.897Z,2.80
2023-01-17T01:13:05.912Z,2.72
2023-01-17T01:15:47.915Z,2.50
2023-01-17T01:18:32.489Z,2.40
2023-01-17T01:21:17.961Z,2.60
2023-01-17T01:23:59.969Z,2.80
2023-01-17T01:26:41.955Z,2.80
2023-01-17T01:29:23.921Z,2.50
2023-01-17T01:32:06.006Z,2.40
2023-01-17T01:34:38.168Z,2.70
2023-01-17T01:37:07.727Z,2.22
2023-01-17T01:39:37.205Z,2.40
2023-01-17T01:42:16.371Z,2.40
2023-01-17T01:44:47.752Z,2.47
2023-01-17T01:47:18.735Z,2.30
2023-01-17T01:49:51.299Z,2.50
2023-01-17T01:52:21.268Z,2.40
2023-01-17T01:54:52.274Z,2.58
2023-01-17T01:59:53.914Z,2.20
2023-01-17T02:02:23.447Z,2.30
2023-01-17T03:43:34.570Z,3.10
2023-01-17T03:46:07.512Z,2.72
2023-01-17T03:48:37.185Z,2.88
2023-01-17T03:51:06.695Z,2.85
2023-01-17T03:53:36.214Z,2.63
2023-01-17T03:56:05.871Z,2.90
2023-01-17T03:58:37.983Z,2.92
2023-01-17T04:01:07.591Z,3.20
2023-01-17T04:03:37.200Z,3.10
2023-01-17T04:06:07.113Z,3.03
2023-01-17T04:08:36.665Z,2.50
2023-01-17T04:11:06.339Z,3.20
2023-01-17T04:13:38.479Z,3.40
2023-01-17T04:16:08.683Z,3.00
2023-01-17T04:18:38.193Z,2.80
2023-01-17T04:21:08.188Z,3.17
2023-01-17T04:23:37.779Z,3.30
2023-01-17T04:26:07.601Z,3.47
2023-01-17T04:28:39.702Z,3.40
2023-01-17T04:31:09.372Z,3.78
2023-01-17T04:33:38.921Z,3.20
2023-01-17T04:36:09.343Z,3.50
2023-01-17T04:38:38.879Z,3.65
2023-01-17T04:41:08.427Z,3.60
2023-01-17T04:43:40.627Z,3.38
2023-01-17T04:46:11.279Z,2.80
2023-01-17T04:48:40.865Z,3.00
2023-01-17T04:51:10.396Z,2.90
2023-01-17T04:53:40.040Z,3.45
2023-01-17T04:56:10.322Z,3.40
2023-01-17T04:58:42.492Z,3.22
2023-01-17T05:01:12.408Z,3.20
2023-01-17T05:03:42.092Z,3.00
2023-01-17T05:06:11.606Z,2.75
2023-01-17T05:08:41.136Z,2.50
2023-01-17T05:11:10.647Z,2.92
2023-01-17T05:13:42.778Z,2.70
2023-01-17T05:16:12.315Z,2.63
2023-01-17T05:18:41.832Z,2.67
2023-01-17T05:21:11.322Z,3.00
2023-01-17T05:23:42.697Z,2.97
2023-01-17T05:26:12.215Z,2.78
2023-01-17T05:28:44.349Z,3.08
2023-01-17T05:31:13.969Z,3.20
2023-01-17T05:33:43.501Z,3.50
2023-01-17T05:36:13.015Z,3.47
2023-01-17T05:38:42.529Z,3.90
2023-01-17T05:41:12.097Z,3.20
2023-01-17T05:43:44.517Z,3.00
2023-01-17T05:46:16.200Z,3.60
2023-01-17T05:48:45.832Z,3.97
2023-01-17T05:51:15.339Z,3.60
2023-01-17T05:53:44.915Z,3.88
2023-01-17T05:56:14.487Z,3.70
2023-01-17T05:58:46.601Z,3.15
2023-01-17T06:01:16.308Z,3.53
2023-01-17T06:03:45.828Z,3.50
2023-01-17T06:06:15.449Z,3.40
2023-01-17T06:08:44.995Z,3.40
2023-01-17T06:11:14.548Z,3.03
2023-01-17T06:13:46.671Z,3.05
2023-01-17T06:16:16.238Z,3.20
2023-01-17T06:18:45.760Z,3.58
2023-01-17T06:21:15.272Z,3.50
2023-01-17T06:23:44.785Z,3.90
2023-01-17T06:26:14.345Z,4.22
2023-01-17T06:28:47.091Z,4.25
2023-01-17T06:31:16.682Z,3.53
2023-01-17T06:33:46.216Z,3.38
2023-01-17T06:36:15.725Z,3.25
2023-01-17T06:38:45.253Z,3.55
2023-01-17T06:41:14.784Z,4.47
2023-01-17T06:43:47.243Z,3.40
2023-01-17T06:46:16.840Z,3.65
2023-01-17T06:48:48.357Z,3.75
2023-01-17T06:51:18.137Z,3.47
2023-01-17T06:53:47.640Z,3.67
2023-01-17T06:56:17.286Z,3.88
2023-01-17T06:58:51.613Z,3.70
2023-01-17T07:01:21.313Z,4.07
2023-01-17T07:03:52.538Z,4.20
2023-01-17T07:06:23.854Z,4.13
2023-01-17T07:08:53.404Z,3.90
2023-01-17T07:11:23.010Z,4.60
2023-01-17T07:13:55.119Z,4.57
2023-01-17T07:16:24.694Z,4.70
2023-01-17T07:18:54.898Z,4.30
2023-01-17T07:21:24.447Z,4.23
2023-01-17T07:23:53.940Z,4.68
2023-01-17T07:26:23.473Z,5.25
2023-01-17T07:28:55.595Z,5.47
2023-01-17T07:31:25.194Z,6.25
2023-01-17T07:33:54.821Z,6.00
2023-01-17T07:36:24.431Z,5.43
2023-01-17T07:38:53.944Z,5.43
2023-01-17T07:41:23.473Z,6.00
2023-01-17T07:43:56.484Z,8.70
2023-01-17T07:46:26.124Z,6.45
2023-01-17T07:48:55.803Z,4.57
2023-01-17T07:51:25.368Z,3.20
2023-01-17T07:53:55.077Z,3.20
2023-01-17T07:56:24.610Z,3.30
2023-01-17T07:58:56.718Z,5.55
2023-01-17T08:01:26.358Z,6.20
2023-01-17T08:03:55.931Z,6.50
2023-01-17T08:06:26.647Z,7.00
2023-01-17T08:08:58.991Z,8.30
2023-01-17T08:11:28.676Z,7.63
2023-01-17T08:14:00.818Z,6.63
2023-01-17T08:16:30.774Z,7.20
2023-01-17T08:19:00.299Z,7.60
2023-01-17T08:21:30.128Z,5.70
2023-01-17T08:23:59.620Z,5.40
2023-01-17T08:26:29.187Z,5.30
2023-01-17T08:29:02.539Z,5.40
2023-01-17T08:31:33.119Z,5.07
2023-01-17T08:34:02.663Z,5.80
2023-01-17T08:36:32.264Z,7.22
2023-01-17T08:39:01.883Z,11.65
2023-01-17T08:41:32.279Z,4.47
2023-01-17T08:44:04.669Z,4.38
2023-01-17T08:46:34.188Z,3.58
2023-01-17T08:49:03.715Z,3.88
2023-01-17T08:51:33.555Z,3.90
2023-01-17T08:54:03.071Z,3.50
2023-01-17T08:56:32.651Z,3.80
2023-01-17T08:59:05.541Z,4.10
2023-01-17T09:01:42.070Z,4.05
2023-01-17T09:04:12.420Z,3.97
2023-01-17T09:06:42.717Z,3.92
2023-01-17T09:09:13.803Z,4.07
